sensor_id;sensor_type;location;lat;lon;timestamp;pressure;altitude;pressure_sealevel;temperature;humidity
37078;BME280;22989;55.998;37.212;2023-04-21T00:01:09;-11298.94;;;-145.39;30.30
37078;BME280;22989;55.998;37.212;2023-04-21T00:03:36;-11298.94;;;-145.39;30.33
37078;BME280;22989;55.998;37.212;2023-04-21T00:06:06;-11298.94;;;-145.39;30.33
37078;BME280;22989;55.998;37.212;2023-04-21T00:08:31;-11298.94;;;-145.39;30.19
37078;BME280;22989;55.998;37.212;2023-04-21T00:10:57;-11298.94;;;-145.39;30.16
37078;BME280;22989;55.998;37.212;2023-04-21T00:13:23;-11298.94;;;-145.39;30.11
37078;BME280;22989;55.998;37.212;2023-04-21T00:15:49;-11298.94;;;-145.39;30.17
37078;BME280;22989;55.998;37.212;2023-04-21T00:18:15;-11298.94;;;-145.39;30.25
37078;BME280;22989;55.998;37.212;2023-04-21T00:20:40;-11298.94;;;-145.39;30.25
37078;BME280;22989;55.998;37.212;2023-04-21T00:23:07;-11298.94;;;-145.39;30.13
37078;BME280;22989;55.998;37.212;2023-04-21T00:25:35;-11298.94;;;-145.39;30.17
37078;BME280;22989;55.998;37.212;2023-04-21T00:28:00;-11298.94;;;-145.39;30.13
37078;BME280;22989;55.998;37.212;2023-04-21T00:30:26;-11298.94;;;-145.39;30.39
37078;BME280;22989;55.998;37.212;2023-04-21T00:32:51;-11298.94;;;-145.39;30.41
37078;BME280;22989;55.998;37.212;2023-04-21T00:35:16;-11298.94;;;-145.39;30.30
37078;BME280;22989;55.998;37.212;2023-04-21T00:37:42;-11298.94;;;-145.39;30.37
37078;BME280;22989;55.998;37.212;2023-04-21T00:40:10;-11298.94;;;-145.39;30.51
37078;BME280;22989;55.998;37.212;2023-04-21T00:42:38;-11298.94;;;-145.39;30.63
37078;BME280;22989;55.998;37.212;2023-04-21T00:45:03;-11298.94;;;-145.39;30.70
37078;BME280;22989;55.998;37.212;2023-04-21T00:47:29;-11298.94;;;-145.39;30.73
37078;BME280;22989;55.998;37.212;2023-04-21T00:49:56;-11298.94;;;-145.39;30.89
37078;BME280;22989;55.998;37.212;2023-04-21T00:52:21;-11298.94;;;-145.39;30.96
37078;BME280;22989;55.998;37.212;2023-04-21T00:54:47;-11298.94;;;-145.39;30.98
37078;BME280;22989;55.998;37.212;2023-04-21T00:57:13;-11298.94;;;-145.39;31.13
37078;BME280;22989;55.998;37.212;2023-04-21T00:59:39;-11298.94;;;-145.39;31.16
37078;BME280;22989;55.998;37.212;2023-04-21T01:02:04;-11298.94;;;-145.39;31.21
37078;BME280;22989;55.998;37.212;2023-04-21T01:04:30;-11298.94;;;-145.39;31.18
37078;BME280;22989;55.998;37.212;2023-04-21T01:07:04;-11298.94;;;-145.39;31.25
37078;BME280;22989;55.998;37.212;2023-04-21T01:09:30;-11298.94;;;-145.39;31.33
37078;BME280;22989;55.998;37.212;2023-04-21T01:14:48;-11298.94;;;-145.39;31.63
37078;BME280;22989;55.998;37.212;2023-04-21T01:17:13;-11298.94;;;-145.39;31.87
37078;BME280;22989;55.998;37.212;2023-04-21T01:19:46;-11298.94;;;-145.39;32.10
37078;BME280;22989;55.998;37.212;2023-04-21T01:22:11;-11298.94;;;-145.39;32.19
37078;BME280;22989;55.998;37.212;2023-04-21T01:24:38;-11298.94;;;-145.39;32.00
37078;BME280;22989;55.998;37.212;2023-04-21T01:27:11;-11298.94;;;-145.39;31.87
37078;BME280;22989;55.998;37.212;2023-04-21T01:29:37;-11298.94;;;-145.39;32.06
37078;BME280;22989;55.998;37.212;2023-04-21T01:32:03;-11298.94;;;-145.39;32.11
37078;BME280;22989;55.998;37.212;2023-04-21T01:34:29;-11298.94;;;-145.39;32.03
37078;BME280;22989;55.998;37.212;2023-04-21T01:36:55;-11298.94;;;-145.39;32.27
37078;BME280;22989;55.998;37.212;2023-04-21T01:39:21;-11298.94;;;-145.39;32.05
37078;BME280;22989;55.998;37.212;2023-04-21T01:41:47;-11298.94;;;-145.39;32.08
37078;BME280;22989;55.998;37.212;2023-04-21T01:44:12;-11298.94;;;-145.39;32.18
37078;BME280;22989;55.998;37.212;2023-04-21T01:46:38;-11298.94;;;-145.39;32.11
37078;BME280;22989;55.998;37.212;2023-04-21T01:49:03;-11298.94;;;-145.39;31.98
37078;BME280;22989;55.998;37.212;2023-04-21T01:51:31;-11298.94;;;-145.39;32.11
37078;BME280;22989;55.998;37.212;2023-04-21T01:53:57;-11298.94;;;-145.39;32.05
37078;BME280;22989;55.998;37.212;2023-04-21T01:56:22;-11298.94;;;-145.39;31.98
37078;BME280;22989;55.998;37.212;2023-04-21T01:58:48;-11298.94;;;-145.39;31.90
37078;BME280;22989;55.998;37.212;2023-04-21T02:01:13;-11298.94;;;-145.39;31.92
37078;BME280;22989;55.998;37.212;2023-04-21T02:03:39;-11298.94;;;-145.39;31.84
37078;BME280;22989;55.998;37.212;2023-04-21T02:06:06;-11298.94;;;-145.39;31.96
37078;BME280;22989;55.998;37.212;2023-04-21T02:08:32;-11298.94;;;-145.39;31.99
37078;BME280;22989;55.998;37.212;2023-04-21T02:10:59;-11298.94;;;-145.39;31.99
37078;BME280;22989;55.998;37.212;2023-04-21T02:13:25;-11298.94;;;-145.39;32.15
37078;BME280;22989;55.998;37.212;2023-04-21T02:15:51;-11298.94;;;-145.39;32.17
37078;BME280;22989;55.998;37.212;2023-04-21T02:18:16;-11298.94;;;-145.39;32.15
37078;BME280;22989;55.998;37.212;2023-04-21T02:20:42;-11298.94;;;-145.39;32.18
37078;BME280;22989;55.998;37.212;2023-04-21T02:23:08;-11298.94;;;-145.39;32.06
37078;BME280;22989;55.998;37.212;2023-04-21T02:25:33;-11298.94;;;-145.39;32.01
37078;BME280;22989;55.998;37.212;2023-04-21T02:27:59;-11298.94;;;-145.39;32.05
37078;BME280;22989;55.998;37.212;2023-04-21T02:30:25;-11298.94;;;-145.39;32.18
37078;BME280;22989;55.998;37.212;2023-04-21T02:32:51;-11298.94;;;-145.39;32.00
37078;BME280;22989;55.998;37.212;2023-04-21T02:35:17;-11298.94;;;-145.39;32.03
37078;BME280;22989;55.998;37.212;2023-04-21T02:37:42;-11298.94;;;-145.39;31.90
37078;BME280;22989;55.998;37.212;2023-04-21T02:40:07;-11298.94;;;-145.39;32.02
37078;BME280;22989;55.998;37.212;2023-04-21T02:42:33;-11298.94;;;-145.39;32.33
37078;BME280;22989;55.998;37.212;2023-04-21T02:44:59;-11298.94;;;-145.39;32.23
37078;BME280;22989;55.998;37.212;2023-04-21T02:47:25;-11298.94;;;-145.39;32.23
37078;BME280;22989;55.998;37.212;2023-04-21T02:49:51;-11298.94;;;-145.39;32.30
37078;BME280;22989;55.998;37.212;2023-04-21T02:52:16;-11298.94;;;-145.39;32.46
37078;BME280;22989;55.998;37.212;2023-04-21T02:54:42;-11298.94;;;-145.39;32.41
37078;BME280;22989;55.998;37.212;2023-04-21T02:57:07;-11298.94;;;-145.39;32.32
37078;BME280;22989;55.998;37.212;2023-04-21T02:59:33;-11298.94;;;-145.39;32.34
37078;BME280;22989;55.998;37.212;2023-04-21T03:01:58;-11298.94;;;-145.39;32.26
37078;BME280;22989;55.998;37.212;2023-04-21T03:04:24;-11298.94;;;-145.39;31.65
37078;BME280;22989;55.998;37.212;2023-04-21T03:06:50;-11298.94;;;-145.39;30.58
37078;BME280;22989;55.998;37.212;2023-04-21T03:09:16;-11298.94;;;-145.39;29.18
37078;BME280;22989;55.998;37.212;2023-04-21T03:11:42;-11298.94;;;-145.39;28.28
37078;BME280;22989;55.998;37.212;2023-04-21T03:14:07;-11298.94;;;-145.39;27.47
37078;BME280;22989;55.998;37.212;2023-04-21T03:16:33;-11298.94;;;-145.39;27.08
37078;BME280;22989;55.998;37.212;2023-04-21T03:18:58;-11298.94;;;-145.39;26.78
37078;BME280;22989;55.998;37.212;2023-04-21T03:21:23;-11298.94;;;-145.39;26.24
37078;BME280;22989;55.998;37.212;2023-04-21T03:23:49;-11298.94;;;-145.39;26.17
37078;BME280;22989;55.998;37.212;2023-04-21T03:26:16;-11298.94;;;-145.39;25.68
37078;BME280;22989;55.998;37.212;2023-04-21T03:28:42;-11298.94;;;-145.39;25.62
37078;BME280;22989;55.998;37.212;2023-04-21T03:31:07;-11298.94;;;-145.39;25.27
37078;BME280;22989;55.998;37.212;2023-04-21T03:33:33;-11298.94;;;-145.39;24.87
37078;BME280;22989;55.998;37.212;2023-04-21T03:35:58;-11298.94;;;-145.39;24.34
37078;BME280;22989;55.998;37.212;2023-04-21T03:38:23;-11298.94;;;-145.39;24.06
37078;BME280;22989;55.998;37.212;2023-04-21T03:40:49;-11298.94;;;-145.39;24.29
37078;BME280;22989;55.998;37.212;2023-04-21T03:43:15;-11298.94;;;-145.39;23.91
37078;BME280;22989;55.998;37.212;2023-04-21T03:45:40;-11298.94;;;-145.39;23.46
37078;BME280;22989;55.998;37.212;2023-04-21T03:48:06;-11298.94;;;-145.39;23.42
37078;BME280;22989;55.998;37.212;2023-04-21T03:50:31;-11298.94;;;-145.39;23.33
37078;BME280;22989;55.998;37.212;2023-04-21T03:52:57;-11298.94;;;-145.39;22.91
37078;BME280;22989;55.998;37.212;2023-04-21T03:55:22;-11298.94;;;-145.39;22.25
37078;BME280;22989;55.998;37.212;2023-04-21T03:57:47;-11298.94;;;-145.39;22.25
37078;BME280;22989;55.998;37.212;2023-04-21T04:00:13;-11298.94;;;-145.39;21.67
37078;BME280;22989;55.998;37.212;2023-04-21T04:02:38;-11298.94;;;-145.39;20.95
37078;BME280;22989;55.998;37.212;2023-04-21T04:05:04;-11298.94;;;-145.39;20.82
37078;BME280;22989;55.998;37.212;2023-04-21T04:07:31;-11298.94;;;-145.39;20.06
37078;BME280;22989;55.998;37.212;2023-04-21T04:09:56;-11298.94;;;-145.39;19.58
37078;BME280;22989;55.998;37.212;2023-04-21T04:12:22;-11298.94;;;-145.39;19.74
37078;BME280;22989;55.998;37.212;2023-04-21T04:14:47;-11298.94;;;-145.39;19.13
37078;BME280;22989;55.998;37.212;2023-04-21T04:17:12;-11298.94;;;-145.39;19.34
37078;BME280;22989;55.998;37.212;2023-04-21T04:19:38;-11298.94;;;-145.39;19.50
37078;BME280;22989;55.998;37.212;2023-04-21T04:22:03;-11298.94;;;-145.39;18.83
37078;BME280;22989;55.998;37.212;2023-04-21T04:24:31;-11298.94;;;-145.39;19.43
37078;BME280;22989;55.998;37.212;2023-04-21T04:26:57;-11298.94;;;-145.39;18.95
37078;BME280;22989;55.998;37.212;2023-04-21T04:29:24;-11298.94;;;-145.39;18.57
37078;BME280;22989;55.998;37.212;2023-04-21T04:31:49;-11298.94;;;-145.39;18.65
37078;BME280;22989;55.998;37.212;2023-04-21T04:34:16;-11298.94;;;-145.39;18.76
37078;BME280;22989;55.998;37.212;2023-04-21T04:36:41;-11298.94;;;-145.39;18.77
37078;BME280;22989;55.998;37.212;2023-04-21T04:39:07;-11298.94;;;-145.39;18.59
37078;BME280;22989;55.998;37.212;2023-04-21T04:41:34;-11298.94;;;-145.39;18.92
37078;BME280;22989;55.998;37.212;2023-04-21T04:44:00;-11298.94;;;-145.39;19.48
37078;BME280;22989;55.998;37.212;2023-04-21T04:46:31;-11298.94;;;-145.39;19.14
37078;BME280;22989;55.998;37.212;2023-04-21T04:48:58;-11298.94;;;-145.39;19.39
37078;BME280;22989;55.998;37.212;2023-04-21T04:51:23;-11298.94;;;-145.39;19.28
37078;BME280;22989;55.998;37.212;2023-04-21T04:53:49;-11298.94;;;-145.39;19.49
37078;BME280;22989;55.998;37.212;2023-04-21T04:56:14;-11298.94;;;-145.39;19.18
37078;BME280;22989;55.998;37.212;2023-04-21T04:58:40;-11298.94;;;-145.39;18.87
37078;BME280;22989;55.998;37.212;2023-04-21T05:01:12;-11298.94;;;-145.39;18.77
37078;BME280;22989;55.998;37.212;2023-04-21T05:03:38;-11298.94;;;-145.39;18.21
37078;BME280;22989;55.998;37.212;2023-04-21T05:06:03;-11298.94;;;-145.39;18.25
37078;BME280;22989;55.998;37.212;2023-04-21T05:08:29;-11298.94;;;-145.39;17.94
37078;BME280;22989;55.998;37.212;2023-04-21T05:10:54;-11298.94;;;-145.39;18.06
37078;BME280;22989;55.998;37.212;2023-04-21T05:13:19;-11298.94;;;-145.39;17.95
37078;BME280;22989;55.998;37.212;2023-04-21T05:15:45;-11298.94;;;-145.39;17.59
37078;BME280;22989;55.998;37.212;2023-04-21T05:18:10;-11298.94;;;-145.39;17.61
37078;BME280;22989;55.998;37.212;2023-04-21T05:20:39;-11298.94;;;-145.39;17.33
37078;BME280;22989;55.998;37.212;2023-04-21T05:23:04;-11298.94;;;-145.39;17.26
37078;BME280;22989;55.998;37.212;2023-04-21T05:25:30;-11298.94;;;-145.39;17.53
37078;BME280;22989;55.998;37.212;2023-04-21T05:27:55;-11298.94;;;-145.39;17.65
37078;BME280;22989;55.998;37.212;2023-04-21T05:30:21;-11298.94;;;-145.39;17.97
37078;BME280;22989;55.998;37.212;2023-04-21T05:32:46;-11298.94;;;-145.39;18.34
37078;BME280;22989;55.998;37.212;2023-04-21T05:35:12;-11298.94;;;-145.39;18.24
37078;BME280;22989;55.998;37.212;2023-04-21T05:37:37;-11298.94;;;-145.39;18.21
37078;BME280;22989;55.998;37.212;2023-04-21T05:40:02;-11298.94;;;-145.39;17.77
37078;BME280;22989;55.998;37.212;2023-04-21T05:42:28;-11298.94;;;-145.39;17.48
37078;BME280;22989;55.998;37.212;2023-04-21T05:44:53;-11298.94;;;-145.39;17.53
37078;BME280;22989;55.998;37.212;2023-04-21T05:47:19;-11298.94;;;-145.39;17.27
37078;BME280;22989;55.998;37.212;2023-04-21T05:49:45;-11298.94;;;-145.39;17.63
37078;BME280;22989;55.998;37.212;2023-04-21T05:52:14;-11298.94;;;-145.39;18.00
37078;BME280;22989;55.998;37.212;2023-04-21T05:54:39;-11298.94;;;-145.39;18.22
37078;BME280;22989;55.998;37.212;2023-04-21T05:57:05;-11298.94;;;-145.39;17.85
37078;BME280;22989;55.998;37.212;2023-04-21T05:59:32;-11298.94;;;-145.39;18.19
37078;BME280;22989;55.998;37.212;2023-04-21T06:01:58;-11298.94;;;-145.39;18.46
37078;BME280;22989;55.998;37.212;2023-04-21T06:04:23;-11298.94;;;-145.39;18.03
37078;BME280;22989;55.998;37.212;2023-04-21T06:06:49;-11298.94;;;-145.39;18.02
37078;BME280;22989;55.998;37.212;2023-04-21T06:09:14;-11298.94;;;-145.39;17.79
37078;BME280;22989;55.998;37.212;2023-04-21T06:11:40;-11298.94;;;-145.39;17.94
37078;BME280;22989;55.998;37.212;2023-04-21T06:14:06;-11298.94;;;-145.39;18.11
37078;BME280;22989;55.998;37.212;2023-04-21T06:16:31;-11298.94;;;-145.39;18.39
37078;BME280;22989;55.998;37.212;2023-04-21T06:18:58;-11298.94;;;-145.39;17.97
37078;BME280;22989;55.998;37.212;2023-04-21T06:21:24;-11298.94;;;-145.39;18.06
37078;BME280;22989;55.998;37.212;2023-04-21T06:23:49;-11298.94;;;-145.39;18.08
37078;BME280;22989;55.998;37.212;2023-04-21T06:26:15;-11298.94;;;-145.39;17.80
37078;BME280;22989;55.998;37.212;2023-04-21T06:28:40;-11298.94;;;-145.39;18.03
37078;BME280;22989;55.998;37.212;2023-04-21T06:31:06;-11298.94;;;-145.39;17.94
37078;BME280;22989;55.998;37.212;2023-04-21T06:33:32;-11298.94;;;-145.39;18.10
37078;BME280;22989;55.998;37.212;2023-04-21T06:35:57;-11298.94;;;-145.39;17.71
37078;BME280;22989;55.998;37.212;2023-04-21T06:38:23;-11298.94;;;-145.39;17.40
37078;BME280;22989;55.998;37.212;2023-04-21T06:40:48;-11298.94;;;-145.39;17.57
37078;BME280;22989;55.998;37.212;2023-04-21T06:43:14;-11298.94;;;-145.39;18.03
37078;BME280;22989;55.998;37.212;2023-04-21T06:45:40;-11298.94;;;-145.39;18.47
37078;BME280;22989;55.998;37.212;2023-04-21T06:48:06;-11298.94;;;-145.39;18.26
37078;BME280;22989;55.998;37.212;2023-04-21T06:50:31;-11298.94;;;-145.39;17.64
37078;BME280;22989;55.998;37.212;2023-04-21T06:52:56;-11298.94;;;-145.39;17.37
37078;BME280;22989;55.998;37.212;2023-04-21T06:55:22;-11298.94;;;-145.39;17.76
37078;BME280;22989;55.998;37.212;2023-04-21T06:57:48;-11298.94;;;-145.39;18.10
37078;BME280;22989;55.998;37.212;2023-04-21T07:00:13;-11298.94;;;-145.39;18.43
37078;BME280;22989;55.998;37.212;2023-04-21T07:02:39;-11298.94;;;-145.39;18.43
37078;BME280;22989;55.998;37.212;2023-04-21T07:05:06;-11298.94;;;-145.39;18.59
37078;BME280;22989;55.998;37.212;2023-04-21T07:07:32;-11298.94;;;-145.39;18.37
37078;BME280;22989;55.998;37.212;2023-04-21T07:09:57;-11298.94;;;-145.39;18.42
37078;BME280;22989;55.998;37.212;2023-04-21T07:12:22;-11298.94;;;-145.39;18.14
37078;BME280;22989;55.998;37.212;2023-04-21T07:14:48;-11298.94;;;-145.39;17.64
37078;BME280;22989;55.998;37.212;2023-04-21T07:17:13;-11298.94;;;-145.39;18.03
37078;BME280;22989;55.998;37.212;2023-04-21T07:19:39;-11298.94;;;-145.39;18.26
37078;BME280;22989;55.998;37.212;2023-04-21T07:22:04;-11298.94;;;-145.39;17.94
37078;BME280;22989;55.998;37.212;2023-04-21T07:24:30;-11298.94;;;-145.39;18.03
37078;BME280;22989;55.998;37.212;2023-04-21T07:26:56;-11298.94;;;-145.39;17.88
37078;BME280;22989;55.998;37.212;2023-04-21T07:29:21;-11298.94;;;-145.39;18.01
37078;BME280;22989;55.998;37.212;2023-04-21T07:31:47;-11298.94;;;-145.39;18.47
37078;BME280;22989;55.998;37.212;2023-04-21T07:34:12;-11298.94;;;-145.39;18.77
37078;BME280;22989;55.998;37.212;2023-04-21T07:36:38;-11298.94;;;-145.39;19.02
37078;BME280;22989;55.998;37.212;2023-04-21T07:39:03;-11298.94;;;-145.39;19.57
37078;BME280;22989;55.998;37.212;2023-04-21T07:41:29;-11298.94;;;-145.39;19.74
37078;BME280;22989;55.998;37.212;2023-04-21T07:43:55;-11298.94;;;-145.39;19.88
37078;BME280;22989;55.998;37.212;2023-04-21T07:46:20;-11298.94;;;-145.39;20.39
37078;BME280;22989;55.998;37.212;2023-04-21T07:48:47;-11298.94;;;-145.39;20.91
37078;BME280;22989;55.998;37.212;2023-04-21T07:51:13;-11298.94;;;-145.39;20.54
37078;BME280;22989;55.998;37.212;2023-04-21T07:53:42;-11298.94;;;-145.39;20.92
37078;BME280;22989;55.998;37.212;2023-04-21T07:56:07;-11298.94;;;-145.39;21.42
37078;BME280;22989;55.998;37.212;2023-04-21T07:58:33;-11298.94;;;-145.39;21.78
37078;BME280;22989;55.998;37.212;2023-04-21T08:00:58;-11298.94;;;-145.39;21.47
37078;BME280;22989;55.998;37.212;2023-04-21T08:03:23;-11298.94;;;-145.39;21.52
37078;BME280;22989;55.998;37.212;2023-04-21T08:05:49;-11298.94;;;-145.39;21.74
37078;BME280;22989;55.998;37.212;2023-04-21T08:08:15;-11298.94;;;-145.39;21.96
37078;BME280;22989;55.998;37.212;2023-04-21T08:10:44;-11298.94;;;-145.39;22.25
37078;BME280;22989;55.998;37.212;2023-04-21T08:13:10;-11298.94;;;-145.39;22.55
37078;BME280;22989;55.998;37.212;2023-04-21T08:15:35;-11298.94;;;-145.39;22.34
37078;BME280;22989;55.998;37.212;2023-04-21T08:18:01;-11298.94;;;-145.39;22.46
37078;BME280;22989;55.998;37.212;2023-04-21T08:20:26;-11298.94;;;-145.39;22.53
37078;BME280;22989;55.998;37.212;2023-04-21T08:22:52;-11298.94;;;-145.39;22.63
37078;BME280;22989;55.998;37.212;2023-04-21T08:25:17;-11298.94;;;-145.39;22.58
37078;BME280;22989;55.998;37.212;2023-04-21T08:27:42;-11298.94;;;-145.39;22.96
37078;BME280;22989;55.998;37.212;2023-04-21T08:30:08;-11298.94;;;-145.39;23.73
37078;BME280;22989;55.998;37.212;2023-04-21T08:32:34;-11298.94;;;-145.39;24.14
37078;BME280;22989;55.998;37.212;2023-04-21T08:35:00;-11298.94;;;-145.39;24.05
37078;BME280;22989;55.998;37.212;2023-04-21T08:37:25;-11298.94;;;-145.39;24.32
37078;BME280;22989;55.998;37.212;2023-04-21T08:39:50;-11298.94;;;-145.39;24.09
37078;BME280;22989;55.998;37.212;2023-04-21T08:42:17;-11298.94;;;-145.39;24.09
37078;BME280;22989;55.998;37.212;2023-04-21T08:44:43;-11298.94;;;-145.39;24.04
37078;BME280;22989;55.998;37.212;2023-04-21T08:47:09;-11298.94;;;-145.39;24.32
37078;BME280;22989;55.998;37.212;2023-04-21T08:49:35;-11298.94;;;-145.39;24.56
37078;BME280;22989;55.998;37.212;2023-04-21T08:52:02;-11298.94;;;-145.39;24.59
37078;BME280;22989;55.998;37.212;2023-04-21T08:54:27;-11298.94;;;-145.39;24.48
37078;BME280;22989;55.998;37.212;2023-04-21T08:56:53;-11298.94;;;-145.39;24.69
37078;BME280;22989;55.998;37.212;2023-04-21T08:59:18;-11298.94;;;-145.39;24.59
37078;BME280;22989;55.998;37.212;2023-04-21T09:04:32;-11298.94;;;-145.39;24.47
37078;BME280;22989;55.998;37.212;2023-04-21T09:06:58;-11298.94;;;-145.39;24.49
37078;BME280;22989;55.998;37.212;2023-04-21T09:09:23;-11298.94;;;-145.39;24.66
37078;BME280;22989;55.998;37.212;2023-04-21T09:11:57;-11298.94;;;-145.39;24.83
37078;BME280;22989;55.998;37.212;2023-04-21T09:14:32;-11298.94;;;-145.39;25.22
37078;BME280;22989;55.998;37.212;2023-04-21T09:17:01;-11298.94;;;-145.39;25.46
37078;BME280;22989;55.998;37.212;2023-04-21T09:19:27;-11298.94;;;-145.39;25.72
37078;BME280;22989;55.998;37.212;2023-04-21T09:21:53;-11298.94;;;-145.39;26.03
37078;BME280;22989;55.998;37.212;2023-04-21T09:24:18;-11298.94;;;-145.39;26.00
37078;BME280;22989;55.998;37.212;2023-04-21T09:26:48;-11298.94;;;-145.39;25.90
37078;BME280;22989;55.998;37.212;2023-04-21T09:29:14;-11298.94;;;-145.39;25.82
37078;BME280;22989;55.998;37.212;2023-04-21T09:31:39;-11298.94;;;-145.39;26.02
37078;BME280;22989;55.998;37.212;2023-04-21T09:34:15;-11298.94;;;-145.39;25.97
37078;BME280;22989;55.998;37.212;2023-04-21T09:36:42;-11298.94;;;-145.39;25.98
37078;BME280;22989;55.998;37.212;2023-04-21T09:39:08;-11298.94;;;-145.39;25.70
37078;BME280;22989;55.998;37.212;2023-04-21T09:41:34;-11298.94;;;-145.39;25.60
37078;BME280;22989;55.998;37.212;2023-04-21T09:43:59;-11298.94;;;-145.39;25.72
37078;BME280;22989;55.998;37.212;2023-04-21T09:46:31;-11298.94;;;-145.39;25.92
37078;BME280;22989;55.998;37.212;2023-04-21T09:48:59;-11298.94;;;-145.39;26.15
37078;BME280;22989;55.998;37.212;2023-04-21T09:51:24;-11298.94;;;-145.39;25.85
37078;BME280;22989;55.998;37.212;2023-04-21T09:53:52;-11298.94;;;-145.39;25.92
37078;BME280;22989;55.998;37.212;2023-04-21T09:56:18;-11298.94;;;-145.39;26.08
37078;BME280;22989;55.998;37.212;2023-04-21T09:58:45;-11298.94;;;-145.39;26.16
37078;BME280;22989;55.998;37.212;2023-04-21T10:01:12;-11298.94;;;-145.39;26.16
37078;BME280;22989;55.998;37.212;2023-04-21T10:03:38;-11298.94;;;-145.39;26.17
37078;BME280;22989;55.998;37.212;2023-04-21T10:06:04;-11298.94;;;-145.39;26.08
37078;BME280;22989;55.998;37.212;2023-04-21T10:08:30;-11298.94;;;-145.39;25.82
37078;BME280;22989;55.998;37.212;2023-04-21T10:10:56;-11298.94;;;-145.39;25.77
37078;BME280;22989;55.998;37.212;2023-04-21T10:13:22;-11298.94;;;-145.39;25.64
37078;BME280;22989;55.998;37.212;2023-04-21T10:15:48;-11298.94;;;-145.39;25.72
37078;BME280;22989;55.998;37.212;2023-04-21T10:18:25;-11298.94;;;-145.39;25.44
37078;BME280;22989;55.998;37.212;2023-04-21T10:21:08;-11298.94;;;-145.39;25.36
37078;BME280;22989;55.998;37.212;2023-04-21T10:26:03;-11298.94;;;-145.39;25.09
37078;BME280;22989;55.998;37.212;2023-04-21T10:28:38;-11298.94;;;-145.39;24.76
37078;BME280;22989;55.998;37.212;2023-04-21T10:31:17;-11298.94;;;-145.39;24.65
37078;BME280;22989;55.998;37.212;2023-04-21T10:36:28;-11298.94;;;-145.39;24.42
37078;BME280;22989;55.998;37.212;2023-04-21T10:38:54;-11298.94;;;-145.39;24.44
37078;BME280;22989;55.998;37.212;2023-04-21T10:41:30;-11298.94;;;-145.39;24.69
37078;BME280;22989;55.998;37.212;2023-04-21T10:43:59;-11298.94;;;-145.39;24.69
37078;BME280;22989;55.998;37.212;2023-04-21T10:46:31;-11298.94;;;-145.39;24.79
37078;BME280;22989;55.998;37.212;2023-04-21T10:49:04;-11298.94;;;-145.39;24.54
37078;BME280;22989;55.998;37.212;2023-04-21T10:51:29;-11298.94;;;-145.39;24.29
37078;BME280;22989;55.998;37.212;2023-04-21T10:53:57;-11298.94;;;-145.39;23.54
37078;BME280;22989;55.998;37.212;2023-04-21T10:56:22;-11298.94;;;-145.39;23.80
37078;BME280;22989;55.998;37.212;2023-04-21T10:58:48;-11298.94;;;-145.39;23.55
37078;BME280;22989;55.998;37.212;2023-04-21T11:01:16;-11298.94;;;-145.39;23.89
37078;BME280;22989;55.998;37.212;2023-04-21T11:03:41;-11298.94;;;-145.39;24.64
37078;BME280;22989;55.998;37.212;2023-04-21T11:06:16;-11298.94;;;-145.39;25.20
37078;BME280;22989;55.998;37.212;2023-04-21T11:08:54;-11298.94;;;-145.39;25.56
37078;BME280;22989;55.998;37.212;2023-04-21T11:11:20;-11298.94;;;-145.39;25.84
37078;BME280;22989;55.998;37.212;2023-04-21T11:13:47;-11298.94;;;-145.39;25.91
37078;BME280;22989;55.998;37.212;2023-04-21T11:16:12;-11298.94;;;-145.39;26.05
37078;BME280;22989;55.998;37.212;2023-04-21T11:18:38;-11298.94;;;-145.39;25.88
37078;BME280;22989;55.998;37.212;2023-04-21T11:21:08;-11298.94;;;-145.39;25.77
37078;BME280;22989;55.998;37.212;2023-04-21T11:23:34;-11298.94;;;-145.39;25.85
37078;BME280;22989;55.998;37.212;2023-04-21T11:26:00;-11298.94;;;-145.39;25.51
37078;BME280;22989;55.998;37.212;2023-04-21T11:28:26;-11298.94;;;-145.39;24.90
37078;BME280;22989;55.998;37.212;2023-04-21T11:30:51;-11298.94;;;-145.39;24.72
37078;BME280;22989;55.998;37.212;2023-04-21T11:33:16;-11298.94;;;-145.39;24.40
37078;BME280;22989;55.998;37.212;2023-04-21T11:35:42;-11298.94;;;-145.39;24.06
37078;BME280;22989;55.998;37.212;2023-04-21T11:38:07;-11298.94;;;-145.39;24.32
37078;BME280;22989;55.998;37.212;2023-04-21T11:40:45;-11298.94;;;-145.39;24.47
37078;BME280;22989;55.998;37.212;2023-04-21T11:43:11;-11298.94;;;-145.39;24.82
37078;BME280;22989;55.998;37.212;2023-04-21T11:45:36;-11298.94;;;-145.39;24.95
37078;BME280;22989;55.998;37.212;2023-04-21T11:48:16;-11298.94;;;-145.39;24.91
37078;BME280;22989;55.998;37.212;2023-04-21T11:50:45;-11298.94;;;-145.39;25.07
37078;BME280;22989;55.998;37.212;2023-04-21T11:53:12;-11298.94;;;-145.39;25.24
37078;BME280;22989;55.998;37.212;2023-04-21T11:55:40;-11298.94;;;-145.39;25.17
37078;BME280;22989;55.998;37.212;2023-04-21T11:58:06;-11298.94;;;-145.39;24.78
37078;BME280;22989;55.998;37.212;2023-04-21T12:00:31;-11298.94;;;-145.39;24.84
37078;BME280;22989;55.998;37.212;2023-04-21T12:02:57;-11298.94;;;-145.39;24.87
37078;BME280;22989;55.998;37.212;2023-04-21T12:05:23;-11298.94;;;-145.39;24.54
37078;BME280;22989;55.998;37.212;2023-04-21T12:07:48;-11298.94;;;-145.39;24.11
37078;BME280;22989;55.998;37.212;2023-04-21T12:10:19;-11298.94;;;-145.39;23.99
37078;BME280;22989;55.998;37.212;2023-04-21T12:12:45;-11298.94;;;-145.39;24.15
37078;BME280;22989;55.998;37.212;2023-04-21T12:15:11;-11298.94;;;-145.39;24.61
37078;BME280;22989;55.998;37.212;2023-04-21T12:17:37;-11298.94;;;-145.39;24.72
37078;BME280;22989;55.998;37.212;2023-04-21T12:20:06;-11298.94;;;-145.39;24.82
37078;BME280;22989;55.998;37.212;2023-04-21T12:22:32;-11298.94;;;-145.39;24.92
37078;BME280;22989;55.998;37.212;2023-04-21T12:24:57;-11298.94;;;-145.39;24.93
37078;BME280;22989;55.998;37.212;2023-04-21T12:27:22;-11298.94;;;-145.39;25.07